Time;durP1;ratioP1;P1;durP2;ratioP2;P2;SDS_P1;SDS_P2;PMS_P1;PMS_P2;Temp;Humidity;BMP_temperature;BMP_pressure;BME280_temperature;BME280_humidity;BME280_pressure;Samples;Min_cycle;Max_cycle;Signal;HPM_P1;HPM_P2
2022/10/11 00:02:45;;;;;;;2.73;1.37;;;;;;;;;;21086644;28;20195;-68
2022/10/11 00:12:48;;;;;;;2.60;1.27;;;15.30;99.90;;;;;;21102943;28;20304;-68
2022/10/11 00:22:50;;;;;;;2.37;1.37;;;;;;;;;;21085981;28;20207;-68
2022/10/11 00:32:52;;;;;;;1.87;1.13;;;;;;;;;;21102448;28;20219;-68
2022/10/11 00:42:54;;;;;;;3.40;1.83;;;;;;;;;;21101733;28;20208;-68
2022/10/11 00:52:57;;;;;;;3.20;1.60;;;;;;;;;;21006628;22;20275;-67
2022/10/11 01:03:00;;;;;;;3.80;2.10;;;;;;;;;;20950186;28;20252;-67
2022/10/11 01:13:14;;;;;;;4.43;2.03;;;15.90;99.90;;;;;;20937324;28;20711;-66
2022/10/11 01:23:16;;;;;;;3.00;2.27;;;;;;;;;;20944581;28;20595;-67
2022/10/11 01:33:17;;;;;;;5.20;2.57;;;;;;;;;;20947478;28;20228;-67
2022/10/11 01:43:21;;;;;;;4.03;2.73;;;15.80;99.90;;;;;;20962668;28;20241;-67
2022/10/11 01:53:42;;;;;;;6.03;2.90;;;;;;;;;;20945916;28;20243;-67
2022/10/11 02:04:16;;;;;;;4.63;3.20;;;;;;;;;;20977494;28;20284;-67
2022/10/11 02:14:21;;;;;;;5.50;3.40;;;;;;;;;;20932524;28;20217;-67
2022/10/11 02:24:37;;;;;;;6.30;3.20;;;15.70;99.90;;;;;;20943275;28;20251;-66
2022/10/11 02:34:41;;;;;;;6.07;3.90;;;;;;;;;;20942387;28;21079;-67
2022/10/11 02:44:52;;;;;;;4.67;3.10;;;15.50;99.90;;;;;;20957772;28;20237;-67
2022/10/11 02:54:54;;;;;;;4.43;2.87;;;;;;;;;;20940841;28;20217;-67
2022/10/11 03:04:56;;;;;;;4.37;2.60;;;;;;;;;;20922672;28;20209;-67
2022/10/11 03:14:58;;;;;;;2.50;1.80;;;;;;;;;;20922522;28;20314;-67
2022/10/11 03:25:00;;;;;;;2.83;1.67;;;;;;;;;;20922076;28;20255;-67
2022/10/11 03:35:01;;;;;;;3.43;2.00;;;;;;;;;;20921085;28;20527;-67
2022/10/11 03:45:07;;;;;;;4.37;2.00;;;15.10;99.90;;;;;;20909771;28;20221;-68
2022/10/11 03:55:08;;;;;;;2.10;1.30;;;;;;;;;;20952137;28;20224;-69
2022/10/11 04:05:11;;;;;;;3.43;1.57;;;15.20;99.90;;;;;;20934481;28;20255;-65
2022/10/11 04:15:13;;;;;;;1.83;1.30;;;;;;;;;;20935804;28;20225;-64
2022/10/11 04:25:15;;;;;;;2.37;1.47;;;;;;;;;;20935832;28;20279;-66
2022/10/11 04:35:17;;;;;;;3.13;1.33;;;;;;;;;;20935205;28;20247;-67
2022/10/11 04:45:19;;;;;;;2.03;1.37;;;;;;;;;;20951331;28;20283;-66
2022/10/11 04:55:21;;;;;;;1.30;0.53;;;;;;;;;;20951215;28;20278;-67
2022/10/11 05:05:23;;;;;;;1.57;0.77;;;;;;;;;;20933539;28;20205;-67
2022/10/11 05:15:25;;;;;;;1.30;0.60;;;;;;;;;;20933454;28;20275;-67
2022/10/11 05:25:27;;;;;;;2.57;0.97;;;;;;;;;;20917501;28;20235;-67
2022/10/11 05:35:29;;;;;;;1.93;0.80;;;;;;;;;;20916882;28;20267;-67
2022/10/11 05:45:31;;;;;;;1.47;0.70;;;;;;;;;;20882311;28;20746;-67
2022/10/11 05:55:37;;;;;;;3.23;0.70;;;;;;;;;;20939194;28;20251;-67
2022/10/11 06:05:39;;;;;;;3.23;0.97;;;;;;;;;;20945493;28;20578;-67
2022/10/11 06:15:41;;;;;;;3.70;0.70;;;;;;;;;;20944779;28;20294;-67
2022/10/11 06:25:43;;;;;;;1.50;0.63;;;;;;;;;;20924248;28;20282;-67
2022/10/11 06:35:44;;;;;;;1.73;0.50;;;;;;;;;;20921069;28;20664;-67
2022/10/11 06:45:46;;;;;;;1.13;0.50;;;;;;;;;;20885605;28;20218;-67
2022/10/11 06:55:48;;;;;;;1.87;1.00;;;;;;;;;;20813750;23;20230;-71
2022/10/11 07:05:51;;;;;;;2.50;1.27;;;;;;;;;;20792251;28;20289;-70
2022/10/11 07:15:53;;;;;;;2.93;0.57;;;;;;;;;;20789059;28;20227;-70
2022/10/11 07:25:54;;;;;;;3.47;0.80;;;;;;;;;;20778605;28;20227;-70
2022/10/11 07:35:57;;;;;;;3.77;0.70;;;14.50;99.90;;;;;;20723939;28;20227;-70
2022/10/11 07:46:02;;;;;;;2.27;0.80;;;;;;;;;;20761042;28;20210;-70
2022/10/11 07:56:04;;;;;;;3.27;0.93;;;;;;;;;;20863621;28;20226;-70
2022/10/11 08:06:08;;;;;;;1.40;0.60;;;;;;;;;;20857849;28;20238;-70
2022/10/11 08:16:11;;;;;;;2.57;0.60;;;;;;;;;;20846611;28;20213;-69
2022/10/11 08:26:13;;;;;;;3.40;0.80;;;;;;;;;;20842635;28;20260;-70
2022/10/11 08:36:15;;;;;;;1.83;0.70;;;;;;;;;;20847809;28;20263;-71
2022/10/11 08:46:47;;;;;;;1.20;1.00;;;;;;;;;;21465125;27;20896;-71
2022/10/11 08:57:25;;;;;;;7.43;0.90;;;;;;;;;;21153482;27;20540;-70
2022/10/11 09:07:52;;;;;;;2.60;0.70;;;;;;;;;;21047522;27;21157;-70
2022/10/11 09:18:13;;;;;;;2.53;0.60;;;14.70;99.90;;;;;;21290806;27;20560;-70
2022/10/11 09:28:49;;;;;;;1.93;0.80;;;14.70;99.90;;;;;;20971115;28;21102;-70
2022/10/11 09:39:14;;;;;;;2.57;1.00;;;;;;;;;;20896743;28;20593;-70
2022/10/11 09:49:18;;;;;;;5.30;0.70;;;15.60;99.90;;;;;;20856641;28;20275;-69
2022/10/11 09:59:28;;;;;;;4.30;1.10;;;16.10;99.90;;;;;;20881996;28;20222;-71
2022/10/11 10:09:30;;;;;;;1.97;0.60;;;;;;;;;;20868275;28;20226;-71
2022/10/11 10:19:39;;;;;;;2.03;0.67;;;;;;;;;;20789019;28;20258;-70
2022/10/11 10:29:41;;;;;;;3.53;1.00;;;;;;;;;;20789001;28;20650;-70
2022/10/11 10:39:53;;;;;;;1.40;0.70;;;16.50;99.90;;;;;;20802215;28;20215;-71
2022/10/11 10:50:14;;;;;;;1.27;0.63;;;;;;;;;;20752302;28;20296;-71
2022/10/11 11:00:18;;;;;;;2.03;0.63;;;;;;;;;;20761215;28;20292;-70
2022/10/11 11:10:32;;;;;;;2.57;0.60;;;17.10;99.90;;;;;;20804365;28;20313;-71
2022/10/11 11:20:37;;;;;;;4.27;0.83;;;;;;;;;;20808422;28;20356;-71
2022/10/11 11:30:42;;;;;;;3.47;0.77;;;;;;;;;;20795117;28;20284;-72
2022/10/11 11:40:48;;;;;;;3.40;0.80;;;;;;;;;;20790800;28;20277;-71
2022/10/11 11:50:52;;;;;;;3.43;0.93;;;;;;;;;;20728119;28;20557;-71
2022/10/11 12:01:00;;;;;;;2.23;0.90;;;;;;;;;;20740163;28;20765;-72
2022/10/11 12:11:03;;;;;;;2.83;0.70;;;;;;;;;;20810664;28;20276;-71
2022/10/11 12:21:23;;;;;;;1.47;0.60;;;17.60;99.90;;;;;;20799543;28;20203;-70
2022/10/11 12:31:29;;;;;;;0.90;0.50;;;17.70;99.90;;;;;;20796944;28;20226;-71
2022/10/11 12:41:48;;;;;;;5.23;1.10;;;17.80;99.90;;;;;;20782261;28;20211;-71
2022/10/11 12:51:56;;;;;;;3.27;0.83;;;;;;;;;;20826593;22;20231;-77
2022/10/11 13:01:58;;;;;;;1.50;0.50;;;;;;;;;;20731697;28;20207;-76
2022/10/11 13:12:08;;;;;;;4.27;0.57;;;;;;;;;;20715514;28;20215;-77
2022/10/11 13:22:18;;;;;;;1.20;0.50;;;;;;;;;;20731434;28;20281;-77
2022/10/11 13:32:25;;;;;;;1.53;0.70;;;;;;;;;;20733326;28;20225;-76
2022/10/11 13:42:31;;;;;;;2.00;0.50;;;18.30;99.90;;;;;;20718442;28;20261;-77
2022/10/11 13:52:33;;;;;;;1.30;0.63;;;;;;;;;;20717728;28;20219;-76
2022/10/11 14:02:35;;;;;;;1.27;0.60;;;;;;;;;;20717793;28;20246;-76
2022/10/11 14:12:42;;;;;;;1.77;0.60;;;17.50;99.90;;;;;;20716877;28;20639;-76
2022/10/11 14:22:44;;;;;;;3.83;0.60;;;;;;;;;;20725116;28;20289;-76
2022/10/11 14:32:47;;;;;;;3.03;0.60;;;17.20;99.90;;;;;;20747501;28;20506;-76
2022/10/11 14:42:49;;;;;;;1.60;0.80;;;;;;;;;;20736599;28;20674;-76
2022/10/11 14:52:51;;;;;;;0.73;0.40;;;;;;;;;;20740420;28;20232;-76
2022/10/11 15:02:54;;;;;;;1.43;0.37;;;;;;;;;;20673039;28;20243;-76
2022/10/11 15:12:56;;;;;;;0.40;0.27;;;;;;;;;;20702318;28;20261;-76
2022/10/11 15:22:58;;;;;;;1.80;0.50;;;;;;;;;;20653351;28;20270;-76
2022/10/11 15:33:00;;;;;;;2.10;0.60;;;;;;;;;;20682356;28;20215;-76
2022/10/11 15:43:02;;;;;;;1.53;0.57;;;16.40;99.90;;;;;;20669753;28;20211;-76
2022/10/11 15:53:25;;;;;;;3.17;0.90;;;;;;;;;;20694438;28;20211;-76
2022/10/11 16:03:28;;;;;;;4.03;0.63;;;16.20;99.90;;;;;;20732917;28;20277;-76
2022/10/11 16:13:31;;;;;;;1.13;0.50;;;;;;;;;;20740250;28;20640;-76
2022/10/11 16:23:33;;;;;;;2.20;0.60;;;;;;;;;;20739716;28;20219;-76
2022/10/11 16:33:44;;;;;;;3.00;1.10;;;;;;;;;;20734975;28;20239;-76
2022/10/11 16:43:49;;;;;;;1.63;0.80;;;;;;;;;;20708294;28;20292;-76
2022/10/11 16:53:53;;;;;;;1.00;0.50;;;;;;;;;;20726471;28;20242;-76
2022/10/11 17:03:55;;;;;;;2.00;0.50;;;;;;;;;;20715110;28;20243;-76
2022/10/11 17:13:59;;;;;;;1.40;0.50;;;;;;;;;;20726782;28;20285;-76
2022/10/11 17:24:02;;;;;;;2.97;0.90;;;;;;;;;;20711182;28;20698;-76
2022/10/11 17:34:04;;;;;;;1.93;0.57;;;;;;;;;;20726443;28;20288;-76
2022/10/11 17:44:06;;;;;;;2.67;0.97;;;;;;;;;;20720889;28;20254;-76
2022/10/11 17:54:11;;;;;;;2.00;1.00;;;;;;;;;;20728424;28;20223;-76
2022/10/11 18:04:15;;;;;;;2.17;0.87;;;;;;;;;;20747950;28;20369;-76
2022/10/11 18:14:17;;;;;;;1.03;0.60;;;;;;;;;;20719024;28;20291;-76
2022/10/11 18:24:19;;;;;;;2.77;1.00;;;;;;;;;;20719748;28;20215;-76
2022/10/11 18:34:20;;;;;;;2.53;1.20;;;;;;;;;;20736422;28;20246;-77
2022/10/11 18:44:22;;;;;;;3.63;1.10;;;;;;;;;;20737702;28;20242;-78
2022/10/11 18:54:24;;;;;;;1.10;0.60;;;;;;;;;;20762164;22;20281;-76
2022/10/11 19:04:27;;;;;;;2.60;1.17;;;;;;;;;;20738356;28;20238;-75
2022/10/11 19:14:29;;;;;;;1.63;0.67;;;;;;;;;;20738387;28;20239;-75
2022/10/11 19:24:31;;;;;;;2.40;0.90;;;;;;;;;;20735808;28;20561;-74
2022/10/11 19:34:33;;;;;;;1.80;0.83;;;;;;;;;;20717912;28;20253;-74
2022/10/11 19:44:37;;;;;;;4.93;0.90;;;;;;;;;;20725512;28;20281;-79
2022/10/11 19:54:39;;;;;;;2.43;0.93;;;;;;;;;;20729651;28;20599;-76
2022/10/11 20:04:41;;;;;;;2.43;0.77;;;;;;;;;;20719858;28;20215;-76
2022/10/11 20:14:42;;;;;;;3.40;0.93;;;;;;;;;;20702834;28;20227;-76
2022/10/11 20:24:44;;;;;;;3.73;0.63;;;;;;;;;;20703115;28;20282;-76
2022/10/11 20:34:46;;;;;;;3.23;0.90;;;;;;;;;;20686323;28;20238;-77
2022/10/11 20:44:48;;;;;;;2.07;0.83;;;;;;;;;;20704345;28;20219;-76
2022/10/11 20:54:50;;;;;;;1.83;0.70;;;;;;;;;;20720621;28;20242;-76
2022/10/11 21:04:52;;;;;;;2.53;0.60;;;;;;;;;;20702627;28;20273;-76
2022/10/11 21:14:54;;;;;;;2.60;0.83;;;;;;;;;;20720766;28;20227;-76
2022/10/11 21:24:55;;;;;;;3.07;0.87;;;;;;;;;;20696955;28;20215;-76
2022/10/11 21:34:57;;;;;;;1.50;0.77;;;;;;;;;;20718567;28;20223;-76
2022/10/11 21:44:59;;;;;;;1.73;0.70;;;;;;;;;;20718966;28;20587;-77
2022/10/11 21:55:00;;;;;;;1.97;0.80;;;;;;;;;;20736183;28;20281;-76
2022/10/11 22:05:02;;;;;;;1.50;0.60;;;;;;;;;;20697814;28;20212;-76
2022/10/11 22:15:05;;;;;;;1.13;0.80;;;;;;;;;;20688361;28;20231;-75
2022/10/11 22:25:07;;;;;;;2.13;1.03;;;;;;;;;;20700991;28;20760;-75
2022/10/11 22:35:09;;;;;;;0.83;0.50;;;;;;;;;;20714986;28;20286;-77
2022/10/11 22:45:11;;;;;;;0.97;0.73;;;14.10;99.90;;;;;;20715884;28;20211;-77
2022/10/11 22:55:12;;;;;;;2.50;0.90;;;;;;;;;;20733678;28;20257;-78
2022/10/11 23:05:14;;;;;;;2.30;1.00;;;;;;;;;;20732709;28;20289;-77
2022/10/11 23:15:16;;;;;;;2.53;0.77;;;;;;;;;;20715259;28;20305;-77
2022/10/11 23:25:18;;;;;;;1.93;0.97;;;;;;;;;;20732693;28;20211;-78
2022/10/11 23:35:20;;;;;;;1.77;1.00;;;;;;;;;;20727895;28;20246;-77
2022/10/11 23:45:22;;;;;;;1.83;0.97;;;;;;;;;;20728001;28;20285;-76
2022/10/11 23:55:24;;;;;;;2.50;0.80;;;;;;;;;;20710745;28;20281;-76
